Terminal Aerodrome Forecast
Issued by NWS

Home | Current Version | Previous Version | Text Only | Print | Product List | Glossary On
Versions: 1 2 3 4 5 6 7 8 9 10 11 12 13 14 15 16 17 18 19 20 21
000
FTUS46 KMFR 180002 RRA
TAFLMT
TAF
KLMT 180002Z 1800/1824 22008KT P6SM -SHRA SCT020 BKN030
      TEMPO 1800/1804 4SM -SHRA BR BKN020
     FM180400 VRB03KT P6SM OVC025
     FM181700 16008KT P6SM SCT025 BKN050=

USA.gov is the U.S. government's official web portal to all federal, state and local government web resources and services.